createdAt,value
2022-12-18T00:00:00.092Z,31.74
2022-12-18T00:01:00.139Z,31.65
2022-12-18T00:02:00.127Z,31.74
2022-12-18T00:03:00.228Z,31.74
2022-12-18T00:04:00.148Z,31.74
2022-12-18T00:05:00.039Z,31.65
2022-12-18T00:06:00.406Z,31.65
2022-12-18T00:06:59.995Z,32.05
2022-12-18T00:07:59.988Z,31.74
2022-12-18T00:08:59.976Z,31.74
2022-12-18T00:09:59.968Z,31.85
2022-12-18T00:11:00.625Z,31.74
2022-12-18T00:11:59.947Z,31.96
2022-12-18T00:13:02.576Z,31.85
2022-12-18T00:13:59.932Z,31.96
2022-12-18T00:15:00.313Z,31.86
2022-12-18T00:15:59.924Z,31.95
2022-12-18T00:16:59.888Z,31.86
2022-12-18T00:18:00.256Z,31.86
2022-12-18T00:18:59.867Z,32.06
2022-12-18T00:19:59.862Z,31.66
2022-12-18T00:20:59.848Z,31.76
2022-12-18T00:21:59.839Z,32.06
2022-12-18T00:23:00.286Z,32.06
2022-12-18T00:24:00.241Z,31.86
2022-12-18T00:24:59.807Z,31.86
2022-12-18T00:25:59.820Z,31.86
2022-12-18T00:26:59.799Z,31.96
2022-12-18T00:27:59.774Z,31.96
2022-12-18T00:28:59.760Z,31.74
2022-12-18T00:29:59.752Z,31.86
2022-12-18T00:30:59.754Z,31.86
2022-12-18T00:31:59.769Z,31.86
2022-12-18T00:32:59.717Z,31.76
2022-12-18T00:33:59.709Z,31.76
2022-12-18T00:34:59.695Z,31.86
2022-12-18T00:36:00.080Z,32.06
2022-12-18T00:36:59.691Z,31.86
2022-12-18T00:37:59.666Z,31.76
2022-12-18T00:38:59.652Z,31.86
2022-12-18T00:39:59.647Z,31.66
2022-12-18T00:40:59.654Z,31.76
2022-12-18T00:41:59.622Z,31.66
2022-12-18T00:42:59.615Z,31.96
2022-12-18T00:43:59.605Z,31.86
2022-12-18T00:44:59.590Z,31.86
2022-12-18T00:46:00.082Z,31.66
2022-12-18T00:46:59.569Z,31.76
2022-12-18T00:47:59.562Z,31.86
2022-12-18T00:48:59.545Z,31.76
2022-12-18T00:49:59.558Z,31.56
2022-12-18T00:50:59.525Z,31.66
2022-12-18T00:51:59.517Z,31.56
2022-12-18T00:52:59.504Z,31.76
2022-12-18T00:53:59.496Z,31.86
2022-12-18T00:55:05.801Z,31.66
2022-12-18T00:55:59.482Z,31.46
2022-12-18T00:56:59.461Z,31.76
2022-12-18T00:57:59.454Z,31.66
2022-12-18T00:58:59.439Z,31.86
2022-12-18T00:59:59.813Z,31.56
2022-12-18T01:00:59.490Z,31.56
2022-12-18T01:01:59.538Z,31.76
2022-12-18T01:02:59.422Z,31.66
2022-12-18T01:03:59.385Z,31.56
2022-12-18T01:05:00.209Z,31.56
2022-12-18T01:05:59.363Z,31.56
2022-12-18T01:06:59.359Z,31.66
2022-12-18T01:07:59.745Z,31.76
2022-12-18T01:08:59.676Z,31.66
2022-12-18T01:09:59.323Z,31.66
2022-12-18T01:10:59.316Z,31.56
2022-12-18T01:11:59.301Z,31.68
2022-12-18T01:12:59.295Z,31.76
2022-12-18T01:13:59.303Z,31.57
2022-12-18T01:14:59.271Z,31.76
2022-12-18T01:15:59.321Z,31.56
2022-12-18T01:16:59.647Z,31.66
2022-12-18T01:17:59.238Z,31.66
2022-12-18T01:18:59.631Z,31.56
2022-12-18T01:19:59.213Z,31.46
2022-12-18T01:20:59.587Z,31.56
2022-12-18T01:21:59.193Z,31.46
2022-12-18T01:22:59.186Z,31.66
2022-12-18T01:23:59.206Z,31.46
2022-12-18T01:24:59.166Z,31.36
2022-12-18T01:25:59.153Z,31.46
2022-12-18T01:26:59.145Z,31.36
2022-12-18T01:27:59.130Z,31.37
2022-12-18T01:28:59.153Z,31.36
2022-12-18T01:29:59.110Z,31.57
2022-12-18T01:30:59.100Z,31.48
2022-12-18T01:31:59.148Z,31.56
2022-12-18T01:32:59.493Z,31.57
2022-12-18T01:33:59.482Z,31.36
2022-12-18T01:34:59.061Z,31.57
2022-12-18T01:35:59.044Z,31.57
2022-12-18T01:36:59.441Z,31.48
2022-12-18T01:37:59.022Z,31.26
2022-12-18T01:38:59.030Z,31.26
2022-12-18T01:39:59.009Z,31.48
2022-12-18T01:40:58.995Z,31.37
2022-12-18T01:41:58.981Z,31.37
2022-12-18T01:42:58.993Z,31.48
2022-12-18T01:43:58.957Z,31.48
2022-12-18T01:44:58.957Z,31.37
2022-12-18T01:45:59.346Z,31.37
2022-12-18T01:46:58.962Z,31.48
2022-12-18T01:47:58.917Z,31.57
2022-12-18T01:48:58.914Z,31.57
2022-12-18T01:49:58.897Z,31.27
2022-12-18T01:50:59.359Z,31.57
2022-12-18T01:51:58.875Z,31.17
2022-12-18T01:52:58.866Z,31.57
2022-12-18T01:53:58.855Z,31.37
2022-12-18T01:54:58.847Z,31.27
2022-12-18T01:55:59.175Z,31.37
2022-12-18T01:56:58.824Z,31.48
2022-12-18T01:57:58.809Z,31.37
2022-12-18T01:58:58.807Z,31.37
2022-12-18T01:59:58.789Z,31.48
2022-12-18T02:00:59.196Z,31.17
2022-12-18T02:01:58.907Z,31.17
2022-12-18T02:02:58.863Z,31.27
2022-12-18T02:03:59.347Z,31.27
2022-12-18T02:04:58.739Z,31.17
2022-12-18T02:05:58.727Z,31.17
2022-12-18T02:06:58.721Z,31.27
2022-12-18T02:07:58.704Z,31.17
2022-12-18T02:08:59.209Z,31.17
2022-12-18T02:09:59.070Z,31.27
2022-12-18T02:10:58.679Z,31.37
2022-12-18T02:11:58.659Z,31.17
2022-12-18T02:12:58.655Z,31.17
2022-12-18T02:13:58.642Z,31.27
2022-12-18T02:14:59.063Z,31.27
2022-12-18T02:15:58.617Z,31.17
2022-12-18T02:16:58.689Z,31.17
2022-12-18T02:17:58.594Z,31.27
2022-12-18T02:18:58.595Z,31.17
2022-12-18T02:19:59.291Z,31.27
2022-12-18T02:20:58.577Z,31.17
2022-12-18T02:21:58.553Z,31.37
2022-12-18T02:22:58.551Z,31.07
2022-12-18T02:23:58.534Z,31.07
2022-12-18T02:24:58.929Z,31.27
2022-12-18T02:25:58.509Z,31.37
2022-12-18T02:26:58.503Z,31.17
2022-12-18T02:27:58.486Z,31.27
2022-12-18T02:28:58.485Z,31.17
2022-12-18T02:29:59.113Z,31.27
2022-12-18T02:30:58.931Z,31.17
2022-12-18T02:31:58.451Z,31.17
2022-12-18T02:32:58.443Z,31.17
2022-12-18T02:33:58.429Z,31.27
2022-12-18T02:34:59.146Z,31.27
2022-12-18T02:35:58.873Z,31.17
2022-12-18T02:36:58.412Z,31.27
2022-12-18T02:37:58.387Z,31.27
2022-12-18T02:38:58.738Z,31.27
2022-12-18T02:39:58.364Z,31.17
2022-12-18T02:40:58.353Z,31.17
2022-12-18T02:41:58.338Z,31.17
2022-12-18T02:42:58.334Z,31.17
2022-12-18T02:43:58.719Z,31.17
2022-12-18T02:44:58.311Z,31.17
2022-12-18T02:45:58.792Z,31.27
2022-12-18T02:46:58.289Z,31.07
2022-12-18T02:47:58.659Z,31.27
2022-12-18T02:48:58.268Z,31.07
2022-12-18T02:49:58.254Z,31.07
2022-12-18T02:50:58.252Z,30.97
2022-12-18T02:51:58.233Z,31.17
2022-12-18T02:52:58.570Z,30.97
2022-12-18T02:53:58.212Z,31.07
2022-12-18T02:54:58.211Z,31.17
2022-12-18T02:55:58.191Z,31.07
2022-12-18T02:56:58.184Z,31.07
2022-12-18T02:57:58.575Z,30.97
2022-12-18T02:58:58.160Z,30.97
2022-12-18T02:59:58.145Z,31.07
2022-12-18T03:00:58.169Z,31.07
2022-12-18T03:01:58.418Z,31.17
2022-12-18T03:02:58.285Z,31.09
2022-12-18T03:03:58.550Z,31.17
2022-12-18T03:04:58.097Z,30.99
2022-12-18T03:05:58.475Z,30.97
2022-12-18T03:06:58.076Z,30.97
2022-12-18T03:07:58.067Z,30.97
2022-12-18T03:08:58.054Z,30.87
2022-12-18T03:09:58.039Z,30.87
2022-12-18T03:10:58.562Z,30.97
2022-12-18T03:11:58.021Z,30.97
2022-12-18T03:12:58.503Z,30.79
2022-12-18T03:13:57.995Z,30.77
2022-12-18T03:14:57.992Z,30.97
2022-12-18T03:15:57.977Z,30.87
2022-12-18T03:16:58.000Z,30.88
2022-12-18T03:17:58.194Z,30.88
2022-12-18T03:18:57.947Z,30.79
2022-12-18T03:19:57.935Z,30.99
2022-12-18T03:20:57.925Z,31.09
2022-12-18T03:21:57.912Z,30.79
2022-12-18T03:22:58.312Z,30.88
2022-12-18T03:23:57.891Z,30.79
2022-12-18T03:24:57.886Z,30.99
2022-12-18T03:25:58.730Z,30.79
2022-12-18T03:26:57.862Z,30.79
2022-12-18T03:27:57.865Z,30.88
2022-12-18T03:28:57.840Z,30.79
2022-12-18T03:29:57.827Z,30.99
2022-12-18T03:30:57.865Z,30.79
2022-12-18T03:31:57.805Z,30.79
2022-12-18T03:33:00.350Z,30.88
2022-12-18T03:33:57.786Z,30.79
2022-12-18T03:34:57.779Z,30.88
2022-12-18T03:35:57.762Z,30.99
2022-12-18T03:36:57.756Z,30.88
2022-12-18T03:37:58.187Z,30.99
2022-12-18T03:38:57.737Z,30.99
2022-12-18T03:39:57.722Z,30.79
2022-12-18T03:40:57.711Z,30.88
2022-12-18T03:41:57.699Z,30.79
2022-12-18T03:42:58.219Z,30.88
2022-12-18T03:43:57.680Z,30.68
2022-12-18T03:44:57.671Z,30.88
2022-12-18T03:45:57.695Z,30.68
2022-12-18T03:46:57.648Z,30.79
2022-12-18T03:47:58.087Z,30.79
2022-12-18T03:48:57.625Z,31.00
2022-12-18T03:49:57.611Z,31.00
2022-12-18T03:50:58.113Z,30.80
2022-12-18T03:51:57.590Z,30.80
2022-12-18T03:52:57.585Z,30.80
2022-12-18T03:53:57.570Z,30.80
2022-12-18T03:54:57.563Z,30.80
2022-12-18T03:55:58.153Z,30.90
2022-12-18T03:56:57.541Z,30.80
2022-12-18T03:57:57.526Z,30.80
2022-12-18T03:58:58.013Z,30.80
2022-12-18T03:59:57.509Z,30.80
2022-12-18T04:00:57.499Z,30.80
2022-12-18T04:01:57.580Z,30.80
2022-12-18T04:02:57.477Z,30.70
2022-12-18T04:03:57.528Z,30.70
2022-12-18T04:04:57.460Z,30.60
2022-12-18T04:05:57.443Z,30.70
2022-12-18T04:06:57.891Z,30.70
2022-12-18T04:07:57.419Z,30.70
2022-12-18T04:08:57.415Z,30.70
2022-12-18T04:09:57.403Z,30.70
2022-12-18T04:10:57.391Z,30.70
2022-12-18T04:11:57.788Z,30.70
2022-12-18T04:12:57.694Z,30.70
2022-12-18T04:13:57.358Z,30.70
2022-12-18T04:14:57.348Z,30.60
2022-12-18T04:15:57.379Z,30.80
2022-12-18T04:16:57.669Z,30.60
2022-12-18T04:17:57.323Z,30.60
2022-12-18T04:18:57.305Z,30.50
2022-12-18T04:19:57.291Z,30.60
2022-12-18T04:20:57.288Z,30.70
2022-12-18T04:21:57.651Z,30.60
2022-12-18T04:22:58.024Z,30.50
2022-12-18T04:23:57.249Z,30.40
2022-12-18T04:24:57.245Z,30.50
2022-12-18T04:25:57.227Z,30.30
2022-12-18T04:26:57.229Z,30.50
2022-12-18T04:27:57.537Z,30.50
2022-12-18T04:28:57.200Z,30.50
2022-12-18T04:29:57.184Z,30.40
2022-12-18T04:30:57.259Z,30.40
2022-12-18T04:31:57.162Z,30.50
2022-12-18T04:32:57.175Z,30.50
2022-12-18T04:33:57.142Z,30.50
2022-12-18T04:34:57.139Z,30.50
2022-12-18T04:35:57.121Z,30.40
2022-12-18T04:36:57.113Z,30.40
2022-12-18T04:37:57.525Z,30.40
2022-12-18T04:38:57.093Z,30.40
2022-12-18T04:39:57.078Z,30.40
2022-12-18T04:40:57.072Z,30.40
2022-12-18T04:41:57.058Z,30.40
2022-12-18T04:42:57.096Z,30.50
2022-12-18T04:43:57.074Z,30.40
2022-12-18T04:44:57.028Z,30.40
2022-12-18T04:45:57.016Z,30.30
2022-12-18T04:46:57.009Z,30.30
2022-12-18T04:47:56.994Z,30.30
2022-12-18T04:48:57.471Z,30.30
2022-12-18T04:49:56.973Z,30.30
2022-12-18T04:50:56.967Z,30.30
2022-12-18T04:51:56.980Z,30.30
2022-12-18T04:52:56.941Z,30.30
2022-12-18T04:53:56.935Z,30.19
2022-12-18T04:54:56.921Z,30.40
2022-12-18T04:55:56.906Z,30.30
2022-12-18T04:56:56.900Z,30.40
2022-12-18T04:57:57.310Z,30.19
2022-12-18T04:58:56.885Z,30.30
2022-12-18T04:59:56.863Z,30.19
2022-12-18T05:00:56.857Z,30.30
2022-12-18T05:01:57.395Z,30.19
2022-12-18T05:02:57.459Z,30.30
2022-12-18T05:03:56.871Z,30.40
2022-12-18T05:04:56.815Z,30.19
2022-12-18T05:05:56.802Z,30.19
2022-12-18T05:06:57.110Z,30.31
2022-12-18T05:07:56.780Z,30.11
2022-12-18T05:08:56.776Z,30.31
2022-12-18T05:09:56.758Z,30.11
2022-12-18T05:10:56.750Z,30.11
2022-12-18T05:11:56.764Z,30.10
2022-12-18T05:12:56.727Z,30.10
2022-12-18T05:13:56.717Z,30.21
2022-12-18T05:14:56.705Z,30.41
2022-12-18T05:15:56.752Z,30.50
2022-12-18T05:17:00.876Z,30.51
2022-12-18T05:17:56.677Z,30.62
2022-12-18T05:18:56.663Z,30.62
2022-12-18T05:19:56.654Z,30.71
2022-12-18T05:20:57.040Z,30.62
2022-12-18T05:21:56.635Z,30.62
2022-12-18T05:22:56.617Z,30.82
2022-12-18T05:23:56.612Z,30.82
2022-12-18T05:24:56.598Z,30.91
2022-12-18T05:25:56.592Z,30.91
2022-12-18T05:26:56.596Z,30.91
2022-12-18T05:27:56.569Z,31.02
2022-12-18T05:28:56.555Z,30.91
2022-12-18T05:29:56.955Z,31.02
2022-12-18T05:30:56.590Z,31.12
2022-12-18T05:31:56.616Z,31.02
2022-12-18T05:32:56.511Z,31.02
2022-12-18T05:33:56.504Z,30.82
2022-12-18T05:34:56.491Z,31.12
2022-12-18T05:35:56.895Z,31.12
2022-12-18T05:36:56.468Z,31.02
2022-12-18T05:37:56.462Z,31.12
2022-12-18T05:38:56.447Z,31.12
2022-12-18T05:39:56.441Z,31.22
2022-12-18T05:40:56.427Z,31.32
2022-12-18T05:41:56.705Z,31.22
2022-12-18T05:42:56.406Z,31.22
2022-12-18T05:43:56.398Z,31.42
2022-12-18T05:44:56.385Z,30.91
2022-12-18T05:45:56.762Z,30.91
2022-12-18T05:46:56.710Z,30.91
2022-12-18T05:47:56.358Z,30.82
2022-12-18T05:48:56.344Z,30.82
2022-12-18T05:49:56.339Z,30.71
2022-12-18T05:50:56.776Z,30.51
2022-12-18T05:51:56.313Z,30.51
2022-12-18T05:52:56.297Z,30.51
2022-12-18T05:53:56.719Z,30.51
2022-12-18T05:54:56.661Z,30.62
2022-12-18T05:55:56.269Z,30.51
2022-12-18T05:56:56.255Z,30.41
2022-12-18T05:57:56.247Z,30.51
2022-12-18T05:58:56.235Z,30.51
2022-12-18T05:59:56.593Z,30.51
2022-12-18T06:00:56.620Z,30.41
2022-12-18T06:01:56.330Z,30.41
2022-12-18T06:02:57.266Z,30.31
2022-12-18T06:03:56.344Z,30.21
2022-12-18T06:04:56.173Z,30.11
2022-12-18T06:05:56.162Z,30.11
2022-12-18T06:06:56.678Z,30.31
2022-12-18T06:07:56.143Z,30.11
2022-12-18T06:08:56.130Z,30.21
2022-12-18T06:09:56.121Z,30.21
2022-12-18T06:10:56.106Z,30.11
2022-12-18T06:11:56.505Z,30.11
2022-12-18T06:12:56.900Z,30.11
2022-12-18T06:13:58.595Z,30.11
2022-12-18T06:14:56.063Z,30.21
2022-12-18T06:15:56.134Z,30.01
2022-12-18T06:16:56.235Z,30.11
2022-12-18T06:17:56.034Z,30.11
2022-12-18T06:18:56.020Z,30.01
2022-12-18T06:19:56.810Z,30.11
2022-12-18T06:20:56.002Z,30.11
2022-12-18T06:21:55.992Z,30.01
2022-12-18T06:22:55.978Z,30.11
2022-12-18T06:23:55.971Z,30.11
2022-12-18T06:24:56.369Z,29.81
2022-12-18T06:25:55.949Z,30.01
2022-12-18T06:26:55.933Z,30.01
2022-12-18T06:27:55.932Z,30.01
2022-12-18T06:28:55.914Z,30.12
2022-12-18T06:29:56.305Z,30.11
2022-12-18T06:30:55.898Z,30.02
2022-12-18T06:31:55.949Z,30.01
2022-12-18T06:32:56.956Z,29.91
2022-12-18T06:33:55.880Z,30.01
2022-12-18T06:34:55.850Z,30.01
2022-12-18T06:36:00.890Z,30.11
2022-12-18T06:36:56.174Z,29.81
2022-12-18T06:37:55.826Z,30.11
2022-12-18T06:38:55.808Z,30.12
2022-12-18T06:39:55.800Z,30.02
2022-12-18T06:40:55.784Z,30.01
2022-12-18T06:41:56.266Z,30.12
2022-12-18T06:42:55.765Z,30.12
2022-12-18T06:43:59.778Z,30.12
2022-12-18T06:44:55.743Z,30.02
2022-12-18T06:45:55.908Z,30.02
2022-12-18T06:46:56.144Z,30.12
2022-12-18T06:47:55.714Z,30.12
2022-12-18T06:48:55.726Z,30.22
2022-12-18T06:49:55.698Z,30.02
2022-12-18T06:50:55.677Z,29.92
2022-12-18T06:51:55.672Z,30.12
2022-12-18T06:52:55.675Z,30.02
2022-12-18T06:53:55.675Z,30.02
2022-12-18T06:54:55.637Z,30.01
2022-12-18T06:55:55.636Z,29.92
2022-12-18T06:56:55.648Z,30.01
2022-12-18T06:57:55.613Z,30.01
2022-12-18T06:58:55.582Z,29.91
2022-12-18T06:59:55.586Z,29.91
2022-12-18T07:00:55.611Z,30.02
2022-12-18T07:01:55.699Z,30.02
2022-12-18T07:02:55.671Z,22.16
2022-12-18T07:03:55.544Z,21.06
2022-12-18T07:04:55.529Z,22.39
2022-12-18T07:05:55.521Z,24.52
2022-12-18T07:06:55.527Z,26.93
2022-12-18T07:07:55.457Z,28.25
2022-12-18T07:08:55.430Z,29.16
2022-12-18T07:09:55.451Z,29.16
2022-12-18T07:10:56.403Z,28.96
2022-12-18T07:11:55.403Z,28.45
2022-12-18T07:12:55.676Z,28.55
2022-12-18T07:13:55.399Z,28.64
2022-12-18T07:14:55.423Z,28.54
2022-12-18T07:15:55.509Z,28.64
2022-12-18T07:16:55.478Z,28.64
2022-12-18T07:17:55.397Z,28.64
2022-12-18T07:18:55.381Z,28.72
2022-12-18T07:19:56.145Z,28.63
2022-12-18T07:20:55.358Z,28.52
2022-12-18T07:21:55.354Z,28.72
2022-12-18T07:22:56.439Z,28.42
2022-12-18T07:23:55.281Z,28.72
2022-12-18T07:24:55.263Z,28.72
2022-12-18T07:25:55.257Z,28.52
2022-12-18T07:26:55.327Z,28.63
2022-12-18T07:27:55.249Z,28.63
2022-12-18T07:28:55.219Z,28.63
2022-12-18T07:29:55.212Z,28.63
2022-12-18T07:30:55.198Z,28.72
2022-12-18T07:31:55.368Z,28.71
2022-12-18T07:32:55.603Z,28.63
2022-12-18T07:33:55.178Z,28.81
2022-12-18T07:34:55.592Z,29.11
2022-12-18T07:35:55.149Z,29.22
2022-12-18T07:36:55.133Z,29.42
2022-12-18T07:37:55.127Z,29.32
2022-12-18T07:38:55.117Z,29.22
2022-12-18T07:39:55.539Z,29.52
2022-12-18T07:40:55.092Z,29.62
2022-12-18T07:41:55.089Z,29.52
2022-12-18T07:42:55.073Z,29.52
2022-12-18T07:43:55.063Z,29.62
2022-12-18T07:44:55.067Z,29.72
2022-12-18T07:45:55.116Z,29.82
2022-12-18T07:46:55.028Z,30.02
2022-12-18T07:47:55.437Z,30.12
2022-12-18T07:48:55.006Z,29.81
2022-12-18T07:49:55.016Z,30.32
2022-12-18T07:50:54.984Z,30.31
2022-12-18T07:51:54.977Z,30.62
2022-12-18T07:52:55.467Z,30.21
2022-12-18T07:53:54.963Z,30.11
2022-12-18T07:54:54.944Z,30.11
2022-12-18T07:56:25.541Z,30.30
2022-12-18T07:56:54.926Z,31.10
2022-12-18T07:57:59.368Z,30.70
2022-12-18T07:58:54.927Z,31.00
2022-12-18T07:59:54.894Z,30.40
2022-12-18T08:00:54.937Z,31.00
2022-12-18T08:01:55.015Z,31.10
2022-12-18T08:02:55.007Z,30.70
2022-12-18T08:03:54.897Z,31.30
2022-12-18T08:04:54.840Z,31.39
2022-12-18T08:05:54.821Z,30.99
2022-12-18T08:06:54.805Z,30.79
2022-12-18T08:43:39.620Z,65.92
2022-12-18T08:44:40.259Z,67.02
2022-12-18T08:45:40.281Z,68.51
2022-12-18T08:46:40.371Z,68.19
2022-12-18T08:47:40.219Z,67.47
2022-12-18T08:48:40.200Z,68.54
2022-12-18T08:49:40.216Z,70.35
2022-12-18T08:50:40.189Z,71.55
2022-12-18T08:51:40.177Z,73.25
2022-12-18T08:52:40.167Z,72.08
2022-12-18T08:53:40.604Z,72.27
2022-12-18T08:54:40.738Z,72.16
2022-12-18T08:55:40.127Z,70.59
2022-12-18T08:56:40.127Z,71.98
2022-12-18T08:57:40.106Z,74.53
2022-12-18T08:58:40.101Z,73.79
2022-12-18T08:59:40.098Z,74.00
2022-12-18T09:00:40.092Z,75.27
2022-12-18T09:01:40.229Z,75.17
2022-12-18T09:02:40.170Z,73.68
2022-12-18T09:03:40.560Z,74.60
2022-12-18T09:04:40.068Z,76.31
2022-12-18T09:05:40.038Z,75.46
2022-12-18T09:06:40.022Z,76.09
2022-12-18T09:07:40.018Z,73.22
2022-12-18T09:08:40.523Z,73.43
2022-12-18T09:09:40.221Z,74.82
2022-12-18T09:10:43.287Z,75.03
2022-12-18T09:11:39.968Z,74.39
2022-12-18T09:12:39.968Z,72.80
2022-12-18T09:13:40.871Z,75.24
2022-12-18T09:14:39.955Z,73.65
2022-12-18T09:15:39.926Z,74.18
2022-12-18T09:16:39.963Z,74.93
2022-12-18T09:17:40.248Z,74.82
2022-12-18T09:18:40.179Z,76.95
2022-12-18T09:19:39.906Z,77.48
2022-12-18T09:20:39.889Z,77.05
2022-12-18T09:21:43.374Z,77.26
2022-12-18T09:22:39.856Z,76.59
2022-12-18T09:23:39.852Z,75.53
2022-12-18T09:24:39.843Z,74.89
2022-12-18T09:25:40.227Z,76.56
2022-12-18T09:26:39.821Z,76.67
2022-12-18T09:27:39.810Z,77.20
2022-12-18T09:28:40.181Z,77.41
2022-12-18T09:29:40.200Z,76.42
2022-12-18T09:30:39.887Z,75.57
2022-12-18T09:31:39.768Z,75.99
2022-12-18T09:32:40.253Z,73.86
2022-12-18T09:33:39.746Z,73.23
2022-12-18T09:34:40.285Z,75.85
2022-12-18T09:35:39.734Z,77.98
2022-12-18T09:36:39.742Z,78.19
2022-12-18T09:37:39.731Z,77.20
2022-12-18T09:38:40.116Z,74.86
2022-12-18T09:39:39.699Z,74.73
2022-12-18T09:40:39.697Z,74.62
2022-12-18T09:41:39.672Z,75.57
2022-12-18T09:42:39.699Z,74.19
2022-12-18T09:43:39.666Z,75.01
2022-12-18T09:44:45.174Z,75.85
2022-12-18T09:45:39.647Z,76.07
2022-12-18T09:46:39.728Z,73.94
2022-12-18T09:47:39.615Z,75.01
2022-12-18T09:48:40.100Z,75.22
2022-12-18T09:49:39.599Z,76.39
2022-12-18T09:50:39.583Z,76.07
2022-12-18T09:51:39.622Z,76.28
2022-12-18T09:52:39.560Z,75.75
2022-12-18T09:53:39.574Z,76.81
2022-12-18T09:54:39.546Z,75.96
2022-12-18T09:55:39.957Z,71.83
2022-12-18T09:56:39.527Z,72.03
2022-12-18T09:57:39.522Z,76.28
2022-12-18T09:58:39.882Z,74.05
2022-12-18T09:59:40.060Z,77.23
2022-12-18T10:00:39.935Z,78.08
2022-12-18T10:01:44.415Z,77.02
2022-12-18T10:02:39.719Z,77.76
2022-12-18T10:03:39.455Z,75.01
2022-12-18T10:04:39.517Z,74.83
2022-12-18T10:05:39.861Z,74.08
2022-12-18T10:06:39.424Z,73.66
2022-12-18T10:07:39.411Z,76.31
2022-12-18T10:08:39.763Z,78.22
2022-12-18T10:09:39.780Z,76.95
2022-12-18T10:10:39.390Z,76.64
2022-12-18T10:11:39.398Z,76.42
2022-12-18T10:12:39.364Z,76.95
2022-12-18T10:13:39.356Z,77.69
2022-12-18T10:14:39.345Z,78.02
2022-12-18T10:15:39.482Z,77.34
2022-12-18T10:16:39.347Z,77.76
2022-12-18T10:17:39.320Z,76.07
2022-12-18T10:18:39.711Z,77.98
2022-12-18T10:19:39.982Z,79.04
2022-12-18T10:20:39.291Z,76.25
2022-12-18T10:21:39.282Z,76.67
2022-12-18T10:22:39.285Z,74.76
2022-12-18T10:23:42.483Z,75.57
2022-12-18T10:24:39.272Z,74.84
2022-12-18T10:25:39.234Z,77.87
2022-12-18T10:26:39.229Z,76.39
2022-12-18T10:27:39.215Z,76.28
2022-12-18T10:28:40.045Z,76.99
2022-12-18T10:29:39.195Z,77.62
2022-12-18T10:30:39.188Z,77.06
2022-12-18T10:31:39.225Z,77.38
2022-12-18T10:32:39.174Z,75.68
2022-12-18T10:33:39.185Z,75.48
2022-12-18T10:34:39.152Z,76.81
2022-12-18T10:35:39.139Z,77.34
2022-12-18T10:36:39.138Z,75.48
2022-12-18T10:37:39.133Z,75.12
2022-12-18T10:38:39.437Z,76.81
2022-12-18T10:39:39.108Z,77.62
2022-12-18T10:40:39.096Z,76.89
2022-12-18T10:41:39.075Z,77.80
2022-12-18T10:42:39.072Z,77.38
2022-12-18T10:43:39.083Z,75.27
2022-12-18T10:44:39.049Z,72.38
2022-12-18T10:45:39.038Z,73.65
2022-12-18T10:46:39.064Z,73.82
2022-12-18T10:47:39.020Z,75.48
2022-12-18T10:48:39.430Z,74.11
2022-12-18T10:49:38.999Z,73.16
2022-12-18T10:51:38.999Z,72.14
2022-12-18T10:52:43.519Z,73.41
2022-12-18T10:53:38.968Z,70.42
2022-12-18T10:54:38.989Z,70.32
2022-12-18T10:55:38.944Z,70.39
2022-12-18T10:56:38.929Z,70.60
2022-12-18T10:57:38.930Z,70.78
2022-12-18T10:58:38.979Z,71.31
2022-12-18T19:47:29.339Z,88.61
2022-12-18T19:48:30.315Z,88.40
2022-12-18T19:49:30.311Z,88.40
2022-12-18T19:50:30.373Z,88.93
2022-12-18T19:51:30.299Z,88.40
2022-12-18T19:52:30.299Z,88.51
2022-12-18T19:53:30.278Z,88.19
2022-12-18T19:54:30.260Z,88.29
2022-12-18T19:55:30.252Z,87.98
2022-12-18T19:56:30.258Z,88.09
2022-12-18T19:57:30.591Z,88.40
2022-12-18T19:58:30.221Z,88.82
2022-12-18T19:59:30.219Z,89.25
2022-12-18T20:00:30.204Z,89.25
2022-12-18T20:01:30.360Z,89.46
2022-12-18T20:02:30.434Z,89.46
2022-12-18T20:03:32.621Z,89.35
2022-12-18T20:04:30.223Z,89.67
2022-12-18T20:05:30.158Z,89.98
2022-12-18T20:06:30.176Z,89.77
2022-12-18T20:07:30.173Z,89.88
2022-12-18T20:08:30.549Z,89.98
2022-12-18T20:09:30.129Z,89.88
2022-12-18T20:10:30.107Z,89.94
2022-12-18T20:11:30.135Z,90.05
2022-12-18T20:12:30.116Z,90.09
2022-12-18T20:13:30.087Z,89.98
2022-12-18T20:14:30.097Z,90.30
2022-12-18T20:15:30.076Z,90.20
2022-12-18T20:16:30.259Z,90.05
2022-12-18T20:17:30.048Z,89.88
2022-12-18T20:18:30.028Z,89.94
2022-12-18T20:19:30.048Z,89.20
2022-12-18T20:20:30.011Z,90.09
2022-12-18T20:21:30.003Z,89.63
2022-12-18T20:22:29.990Z,89.10
2022-12-18T20:23:30.017Z,89.42
2022-12-18T20:24:30.035Z,89.63
2022-12-18T20:25:29.961Z,89.00
2022-12-18T20:26:29.950Z,88.15
2022-12-18T20:27:29.968Z,88.15
2022-12-18T20:28:29.923Z,88.46
2022-12-18T20:29:29.936Z,87.84
2022-12-18T20:30:29.909Z,87.52
2022-12-18T20:31:29.938Z,87.84
2022-12-18T20:32:35.380Z,87.52
2022-12-18T20:33:29.887Z,87.37
2022-12-18T20:34:30.483Z,87.48
2022-12-18T20:35:29.869Z,87.48
2022-12-18T20:36:30.681Z,86.74
2022-12-18T20:37:29.838Z,87.27
2022-12-18T20:38:29.831Z,87.27
2022-12-18T20:39:29.820Z,87.37
2022-12-18T20:40:29.806Z,87.79
2022-12-18T20:41:37.243Z,87.79
2022-12-18T20:42:29.878Z,87.48
2022-12-18T20:43:29.815Z,87.48
2022-12-18T20:44:29.772Z,87.27
2022-12-18T20:45:30.001Z,87.05
2022-12-18T20:46:29.852Z,86.74
2022-12-18T20:47:29.750Z,86.84
2022-12-18T20:48:29.730Z,86.42
2022-12-18T20:49:29.713Z,86.84
2022-12-18T20:50:29.700Z,86.74
2022-12-18T20:51:30.178Z,86.63
2022-12-18T20:52:29.683Z,85.85
2022-12-18T20:53:29.687Z,85.43
2022-12-18T20:54:29.669Z,85.54
2022-12-18T20:55:29.658Z,85.54
2022-12-18T20:56:29.693Z,85.54
2022-12-18T20:57:29.694Z,85.54
2022-12-18T20:58:29.627Z,85.11
2022-12-18T20:59:29.618Z,85.33
2022-12-18T21:00:29.612Z,85.11
2022-12-18T21:01:29.712Z,84.80
2022-12-18T21:02:30.251Z,84.80
2022-12-18T21:03:29.645Z,85.01
2022-12-18T21:04:29.562Z,85.43
2022-12-18T21:05:29.572Z,85.96
2022-12-18T21:06:29.545Z,85.01
2022-12-18T21:07:29.562Z,85.01
2022-12-18T21:08:29.548Z,84.80
2022-12-18T21:09:36.883Z,85.22
2022-12-18T21:10:29.505Z,85.22
2022-12-18T21:11:29.507Z,85.01
2022-12-18T21:12:29.513Z,85.33
2022-12-18T21:13:29.491Z,85.43
2022-12-18T21:14:29.469Z,85.96
2022-12-18T21:15:29.461Z,85.75
2022-12-18T21:16:29.503Z,85.22
2022-12-18T21:17:29.461Z,84.91
2022-12-18T21:18:29.423Z,84.69
2022-12-18T21:19:29.421Z,85.01
2022-12-18T21:20:29.414Z,85.11
2022-12-18T21:21:29.395Z,84.69
2022-12-18T21:22:29.411Z,85.22
2022-12-18T21:23:29.377Z,84.91
2022-12-18T21:24:29.704Z,84.91
2022-12-18T21:25:29.389Z,85.22
2022-12-18T21:26:29.346Z,85.22
2022-12-18T21:27:29.817Z,85.33
2022-12-18T21:28:29.321Z,84.23
2022-12-18T21:29:29.360Z,85.11
2022-12-18T21:30:29.645Z,85.01
2022-12-18T21:31:29.445Z,84.59
2022-12-18T21:32:29.320Z,84.87
2022-12-18T21:33:29.359Z,84.76
2022-12-18T21:34:29.272Z,84.23
2022-12-18T21:35:29.466Z,84.76
2022-12-18T21:36:29.260Z,84.45
2022-12-18T21:37:29.277Z,84.45
2022-12-18T21:38:29.229Z,84.45
2022-12-18T21:39:29.221Z,84.66
2022-12-18T21:40:29.204Z,85.18
2022-12-18T21:41:29.219Z,84.97
2022-12-18T21:42:29.222Z,84.55
2022-12-18T21:43:29.203Z,84.45
2022-12-18T21:44:29.164Z,84.76
2022-12-18T21:45:29.163Z,84.97
2022-12-18T21:46:29.194Z,85.29
2022-12-18T21:47:29.429Z,85.61
2022-12-18T21:48:29.126Z,85.39
2022-12-18T21:49:29.135Z,84.76
2022-12-18T21:50:29.104Z,85.18
2022-12-18T21:51:29.095Z,85.39
2022-12-18T21:52:31.884Z,84.97
2022-12-18T21:53:29.079Z,85.08
2022-12-18T21:54:29.059Z,85.18
2022-12-18T21:55:29.073Z,85.29
2022-12-18T21:56:29.047Z,85.92
2022-12-18T21:57:29.051Z,85.71
2022-12-18T21:58:29.027Z,85.61
2022-12-18T21:59:29.018Z,85.39
2022-12-18T22:00:29.063Z,84.97
2022-12-18T22:01:36.567Z,85.50
2022-12-18T22:02:29.213Z,85.50
2022-12-18T22:03:29.152Z,85.82
2022-12-18T22:04:28.962Z,85.39
2022-12-18T22:05:28.954Z,85.71
2022-12-18T22:06:28.947Z,85.82
2022-12-18T22:07:28.942Z,86.03
2022-12-18T22:08:29.165Z,85.71
2022-12-18T22:09:28.985Z,85.18
2022-12-18T22:10:28.938Z,85.57
2022-12-18T22:11:28.908Z,85.78
2022-12-18T22:12:28.884Z,85.67
2022-12-18T22:13:28.935Z,85.71
2022-12-18T22:14:28.901Z,86.10
2022-12-18T22:15:28.937Z,86.62
2022-12-18T22:16:28.849Z,86.62